KCRP

Corpus Christi International Airport

Corpus Christi, Texas, USA
METAR KCRP 190851Z 15004KT 10SM FEW018 FEW210 BKN250 25/24 A2991 RMK AO2 SLP128 T02500239 56006
Observed Flight Rules
Sep-19 @ 08:51 UTC (14 minutes ago) Visual Flight Rules
Wind Visibility Clouds
150° at 4 knots 10 miles
  • Few at 1,800' AGL
  • Few at 21,000' AGL
  • Broken at 25,000' AGL
Temperatures Readings
Current 25°C / 77°F
Dewpoint 24°C / 75°F
Humidity 94%
Altimeter 29.91" Hg
Pressure 1012.8 hPa
Elevation 14
METAR KCRP 190851Z 15004KT 10SM FEW018 FEW210 BKN250 25/24 A2991 RMK AO2 SLP128 T02500239 56006
Observed Flight Rules
Sep-19 @ 08:51 UTC
(14 minutes ago)
VFR
Wind Visibility
150° at 4 knots 10 miles
Clouds
  • Few at 1,800' AGL
  • Few at 21,000' AGL
  • Broken at 25,000' AGL
Temperature Dewpoint
25°C / 77°F 24°C / 75°F
Humidity Altimeter Pressure
94% 29.91" Hg 1012.8 hPa